JAL2061 RJFT-RJFM

Flight info

Callsign JAL2061
Flight time N/A
Altitude 15000
Route MIFNE ENBEN
Aircraft E170/M-SDE3GILORVW/S

Departure

Time 2026-05-04 06:58
Airport Kumamoto Airport (RJFT)

Arrival

Time N/A
Airport Miyazaki Airport (RJFM)
Time Latitude Longitude Altitude Speed Heading
2026-05-04 06:40 32.83517 130.85844 642 ft 0 kts 154°
2026-05-04 06:49 32.83527 130.85840 642 ft 2 kts 154°
2026-05-04 06:50 32.83622 130.85785 641 ft 2 kts 154°
2026-05-04 06:51 32.83631 130.85780 641 ft 1 kts 155°
2026-05-04 06:51 32.83642 130.85768 640 ft 2 kts 115°
2026-05-04 06:51 32.83644 130.85750 640 ft 2 kts 83°
2026-05-04 06:51 32.83643 130.85741 640 ft 1 kts 64°
2026-05-04 06:52 32.83640 130.85735 640 ft 0 kts 64°
2026-05-04 06:53 32.83640 130.85736 640 ft 0 kts 63°
2026-05-04 06:54 32.83644 130.85745 640 ft 2 kts 64°
2026-05-04 06:54 32.83653 130.85768 640 ft 4 kts 64°
2026-05-04 06:54 32.83677 130.85828 642 ft 11 kts 64°
2026-05-04 06:54 32.83720 130.85931 642 ft 15 kts 64°
2026-05-04 06:55 32.83765 130.86044 644 ft 14 kts 66°
2026-05-04 06:55 32.83812 130.86163 642 ft 17 kts 64°
2026-05-04 06:55 32.83865 130.86296 643 ft 18 kts 64°
2026-05-04 06:55 32.83923 130.86440 641 ft 20 kts 64°
2026-05-04 06:56 32.83986 130.86595 640 ft 21 kts 65°
2026-05-04 06:57 32.84201 130.86676 643 ft 65 kts 246°
2026-05-04 06:58 32.83895 130.85913 645 ft 136 kts 245°
2026-05-04 06:58 32.83441 130.84795 1061 ft 157 kts 249°
2026-05-04 06:58 32.82984 130.83670 1933 ft 147 kts 251°
2026-05-04 06:58 32.82608 130.82596 2658 ft 141 kts 262°
2026-05-04 06:59 32.82515 130.81451 3177 ft 150 kts 278°
2026-05-04 06:59 32.82707 130.80106 3432 ft 181 kts 287°
2026-05-04 06:59 32.83157 130.78601 3842 ft 205 kts 295°
2026-05-04 06:59 32.83581 130.76898 4273 ft 234 kts 271°
2026-05-04 07:01 32.76880 130.67741 10080 ft 316 kts 166°
2026-05-04 07:01 32.74935 130.69022 10847 ft 331 kts 136°
2026-05-04 07:02 32.73579 130.71240 11514 ft 344 kts 122°
2026-05-04 07:02 32.72148 130.73639 12125 ft 360 kts 125°
2026-05-04 07:02 32.70677 130.76073 12783 ft 373 kts 125°
2026-05-04 07:02 32.69146 130.78601 13586 ft 380 kts 125°
2026-05-04 07:03 32.67619 130.81154 14440 ft 385 kts 126°
2026-05-04 07:03 32.66098 130.83801 14945 ft 389 kts 124°
2026-05-04 07:03 32.64599 130.86423 14949 ft 379 kts 125°
2026-05-04 07:03 32.63092 130.89056 14973 ft 398 kts 124°
2026-05-04 07:04 32.61505 130.91835 14985 ft 412 kts 125°
2026-05-04 07:04 32.59886 130.94652 14957 ft 412 kts 125°
2026-05-04 07:04 32.58273 130.97449 14937 ft 412 kts 125°
2026-05-04 07:04 32.56663 131.00258 14943 ft 413 kts 125°
2026-05-04 07:05 32.55057 131.03076 14938 ft 411 kts 125°
2026-05-04 07:05 32.53432 131.05910 14920 ft 415 kts 125°
2026-05-04 07:05 32.51815 131.08731 14926 ft 412 kts 125°
2026-05-04 07:05 32.50216 131.11530 14915 ft 410 kts 126°
2026-05-04 07:06 32.45968 131.15626 15010 ft 389 kts 159°
2026-05-04 07:06 32.43774 131.17551 15029 ft 400 kts 134°
2026-05-04 07:06 32.42372 131.20358 15043 ft 404 kts 108°
2026-05-04 07:07 32.41958 131.23644 14787 ft 400 kts 84°
2026-05-04 07:08 32.55026 131.30162 14276 ft 355 kts 30°
2026-05-04 07:09 32.56682 131.32463 14363 ft 377 kts 57°
2026-05-04 07:09 32.57394 131.35500 14451 ft 395 kts 84°
2026-05-04 07:09 32.57005 131.38696 14575 ft 400 kts 106°
2026-05-04 07:09 32.55845 131.41673 14047 ft 396 kts 129°
2026-05-04 07:10 32.53830 131.43782 13653 ft 386 kts 155°
2026-05-04 07:10 32.51362 131.44693 13259 ft 363 kts 182°
2026-05-04 07:12 32.51966 131.34776 13014 ft 320 kts 353°
2026-05-04 07:12 32.54201 131.35378 13053 ft 339 kts 20°
2026-05-04 07:12 32.56017 131.37219 13117 ft 359 kts 48°
2026-05-04 07:12 32.57033 131.39980 13184 ft 378 kts 75°
2026-05-04 07:13 32.56970 131.43098 13251 ft 387 kts 103°
2026-05-04 07:13 32.55813 131.45944 13312 ft 388 kts 130°
2026-05-04 07:13 32.53772 131.48007 13374 ft 382 kts 153°